Terminal Aerodrome Forecast
Issued by NWS

Home | Current Version | Previous Version | Graphics & Text | Print | Product List | Glossary Off
Versions: 1 2 3 4 5 6 7 8 9 10 11 12 13 14 15

000
FTUS43 KDDC 250520
TAFGCK
TAF
KGCK 250520Z 2506/2606 03012KT P6SM -TSRA BKN012CB
     FM251100 02008KT P6SM VCTS OVC008CB
     FM251500 02009KT P6SM OVC015
     FM251700 07009KT P6SM BKN035=

USA.gov is the U.S. government's official web portal to all federal, state and local government web resources and services.